createdAt,value
2022-12-18T00:00:12.541Z,13.45
2022-12-18T00:02:40.916Z,11.35
2022-12-18T00:05:11.190Z,12.68
2022-12-18T00:07:40.104Z,12.43
2022-12-18T00:10:09.882Z,10.43
2022-12-18T00:12:38.159Z,13.80
2022-12-18T00:15:07.244Z,11.80
2022-12-18T00:17:35.458Z,12.95
2022-12-18T00:20:04.874Z,13.13
2022-12-18T00:22:34.879Z,11.43
2022-12-18T00:25:03.294Z,13.65
2022-12-18T00:27:31.515Z,12.45
2022-12-18T00:29:59.773Z,13.48
2022-12-18T00:32:27.995Z,13.55
2022-12-18T00:34:56.253Z,14.15
2022-12-18T00:37:24.485Z,13.98
2022-12-18T00:39:54.227Z,13.52
2022-12-18T00:42:40.060Z,11.75
2022-12-18T00:45:12.976Z,10.75
2022-12-18T00:47:42.029Z,11.70
2022-12-18T00:50:11.916Z,13.27
2022-12-18T00:52:40.232Z,14.00
2022-12-18T00:59:08.431Z,10.77
2022-12-18T01:01:36.855Z,12.77
2022-12-18T01:04:06.423Z,11.93
2022-12-18T01:06:34.755Z,13.25
2022-12-18T01:09:03.193Z,11.63
2022-12-18T01:11:31.463Z,11.77
2022-12-18T01:14:02.882Z,11.07
2022-12-18T01:16:32.592Z,11.30
2022-12-18T01:19:01.133Z,10.30
2022-12-18T01:21:29.737Z,10.60
2022-12-18T01:23:59.639Z,12.35
2022-12-18T01:26:33.726Z,11.80
2022-12-18T01:29:04.393Z,10.20
2022-12-18T01:31:36.053Z,11.18
2022-12-18T01:34:05.672Z,11.70
2022-12-18T01:36:36.632Z,13.57
2022-12-18T01:39:08.331Z,11.68
2022-12-18T01:41:51.494Z,11.30
2022-12-18T01:45:07.419Z,9.13
2022-12-18T01:47:43.367Z,11.10
2022-12-18T01:50:18.829Z,12.77
2022-12-18T01:52:52.994Z,10.80
2022-12-18T01:55:26.839Z,9.10
2022-12-18T01:57:58.522Z,10.60
2022-12-18T02:00:29.114Z,9.88
2022-12-18T02:02:59.793Z,11.63
2022-12-18T02:05:43.086Z,10.65
2022-12-18T02:08:19.854Z,12.50
2022-12-18T02:11:05.042Z,10.80
2022-12-18T02:13:46.064Z,12.63
2022-12-18T02:16:26.802Z,11.13
2022-12-18T02:19:01.735Z,12.27
2022-12-18T02:21:48.226Z,10.98
2022-12-18T02:24:36.401Z,10.27
2022-12-18T02:27:09.970Z,10.30
2022-12-18T02:30:00.396Z,11.60
2022-12-18T02:32:37.895Z,11.95
2022-12-18T02:35:10.806Z,10.80
2022-12-18T02:37:44.503Z,9.55
2022-12-18T02:40:15.665Z,8.75
2022-12-18T02:42:45.380Z,10.35
2022-12-18T02:45:13.704Z,11.32
2022-12-18T02:47:48.054Z,11.65
2022-12-18T02:50:29.012Z,12.70
2022-12-18T02:53:13.355Z,12.85
2022-12-18T02:59:53.062Z,10.48
2022-12-18T03:02:32.890Z,13.00
2022-12-18T03:05:09.732Z,12.23
2022-12-18T03:07:47.010Z,11.80
2022-12-18T03:10:29.542Z,13.90
2022-12-18T03:13:06.854Z,11.85
2022-12-18T03:15:47.340Z,9.57
2022-12-18T03:18:24.259Z,10.93
2022-12-18T03:20:58.036Z,9.75
2022-12-18T03:23:39.393Z,9.75
2022-12-18T03:26:15.779Z,10.10
2022-12-18T03:29:12.811Z,7.55
2022-12-18T03:31:50.953Z,8.35
2022-12-18T03:34:27.463Z,12.20
2022-12-18T03:36:58.055Z,9.57
2022-12-18T03:39:30.895Z,10.43
2022-12-18T03:42:09.699Z,9.68
2022-12-18T03:45:02.184Z,9.90
2022-12-18T03:47:42.408Z,10.20
2022-12-18T03:50:22.976Z,11.95
2022-12-18T03:52:58.630Z,8.10
2022-12-18T03:55:32.618Z,10.18
2022-12-18T03:58:03.795Z,8.05
2022-12-18T04:00:42.199Z,10.07
2022-12-18T04:03:15.890Z,9.45
2022-12-18T04:05:47.546Z,9.23
2022-12-18T04:08:17.920Z,8.00
2022-12-18T04:10:48.403Z,9.23
2022-12-18T04:13:32.177Z,10.55
2022-12-18T04:16:00.649Z,9.27
2022-12-18T04:18:38.268Z,10.30
2022-12-18T04:21:08.364Z,9.85
2022-12-18T04:23:36.846Z,11.10
2022-12-18T04:26:05.623Z,11.55
2022-12-18T04:31:19.588Z,10.18
2022-12-18T04:33:52.344Z,8.40
2022-12-18T04:36:37.933Z,8.27
2022-12-18T04:39:06.407Z,8.85
2022-12-18T04:41:34.820Z,9.90
2022-12-18T04:44:05.750Z,11.13
2022-12-18T04:46:34.131Z,11.30
2022-12-18T04:49:04.171Z,10.32
2022-12-18T04:51:32.494Z,9.90
2022-12-18T04:54:00.927Z,9.45
2022-12-18T04:56:29.274Z,9.52
2022-12-18T04:58:57.548Z,8.23
2022-12-18T05:01:30.977Z,10.77
2022-12-18T05:04:38.183Z,8.80
2022-12-18T05:07:06.308Z,7.57
2022-12-18T05:09:34.559Z,7.82
2022-12-18T05:12:03.188Z,11.02
2022-12-18T05:14:35.392Z,8.38
2022-12-18T05:17:06.050Z,6.97
2022-12-18T05:19:34.584Z,8.20
2022-12-18T05:22:06.240Z,8.43
2022-12-18T05:24:34.674Z,9.23
2022-12-18T05:27:03.030Z,8.57
2022-12-18T05:29:40.346Z,6.75
2022-12-18T05:32:08.970Z,12.25
2022-12-18T05:34:37.101Z,11.63
2022-12-18T05:37:06.643Z,10.60
2022-12-18T05:39:34.965Z,9.05
2022-12-18T05:42:03.157Z,10.23
2022-12-18T05:44:31.365Z,10.38
2022-12-18T05:46:59.652Z,9.70
2022-12-18T05:49:28.304Z,11.13
2022-12-18T05:51:56.867Z,10.82
2022-12-18T05:54:26.428Z,11.63
2022-12-18T05:56:54.869Z,10.55
2022-12-18T05:59:23.485Z,8.77
2022-12-18T06:01:51.892Z,8.27
2022-12-18T06:04:20.194Z,8.77
2022-12-18T06:06:48.407Z,9.95
2022-12-18T06:09:16.632Z,7.93
2022-12-18T06:11:46.123Z,8.82
2022-12-18T06:14:14.485Z,9.15
2022-12-18T06:16:42.726Z,11.20
2022-12-18T06:19:17.087Z,8.38
2022-12-18T06:21:45.344Z,9.73
2022-12-18T06:24:13.937Z,7.53
2022-12-18T06:26:42.306Z,6.68
2022-12-18T06:29:12.013Z,10.45
2022-12-18T06:31:40.273Z,11.60
2022-12-18T06:34:08.703Z,10.20
2022-12-18T06:36:36.894Z,6.85
2022-12-18T06:39:05.687Z,9.13
2022-12-18T06:41:34.293Z,9.48
2022-12-18T06:44:02.570Z,10.13
2022-12-18T06:46:33.150Z,8.68
2022-12-18T06:49:01.309Z,7.93
2022-12-18T06:51:29.513Z,11.48
2022-12-18T06:53:57.906Z,8.27
2022-12-18T06:56:26.075Z,6.78
2022-12-18T06:58:54.583Z,10.23
2022-12-18T07:01:23.614Z,9.95
2022-12-18T07:03:56.906Z,9.10
2022-12-18T07:06:28.188Z,10.70
2022-12-18T07:08:57.089Z,8.32
2022-12-18T07:11:25.959Z,9.43
2022-12-18T07:13:55.587Z,11.23
2022-12-18T07:16:25.835Z,9.52
2022-12-18T07:18:57.506Z,9.85
2022-12-18T07:21:26.961Z,8.75
2022-12-18T07:23:55.707Z,10.40
2022-12-18T07:26:24.913Z,9.07
2022-12-18T07:28:59.580Z,10.82
2022-12-18T07:31:28.447Z,13.07
2022-12-18T07:33:58.237Z,11.65
2022-12-18T07:36:26.714Z,14.73
2022-12-18T07:38:55.072Z,14.02
2022-12-18T07:41:23.274Z,10.70
2022-12-18T07:46:57.060Z,11.60
2022-12-18T07:49:26.772Z,10.55
2022-12-18T07:51:57.276Z,11.30
2022-12-18T07:54:26.086Z,10.80
2022-12-18T07:56:54.701Z,11.98
2022-12-18T07:59:23.107Z,11.88
2022-12-18T08:01:51.532Z,14.13
2022-12-18T08:04:20.005Z,12.75
2022-12-18T08:06:49.722Z,12.00
2022-12-18T08:09:17.962Z,13.68
2022-12-18T08:11:46.479Z,123.47
2022-12-18T08:14:15.814Z,75.05
2022-12-18T08:16:44.139Z,33.30
2022-12-18T08:19:12.360Z,24.92
2022-12-18T08:21:40.908Z,48.95
2022-12-18T08:24:12.109Z,29.42
2022-12-18T08:26:40.591Z,21.73
2022-12-18T08:29:10.533Z,18.83
2022-12-18T08:31:39.592Z,17.45
2022-12-18T08:34:08.104Z,15.07
2022-12-18T08:36:38.416Z,18.02
2022-12-18T08:39:07.046Z,15.27
2022-12-18T08:41:36.691Z,13.10
2022-12-18T08:44:36.714Z,13.30
2022-12-18T08:47:11.064Z,11.85
2022-12-18T08:49:39.629Z,15.70
2022-12-18T08:52:07.833Z,29.80
2022-12-18T08:54:36.910Z,40.60
2022-12-18T08:57:06.500Z,22.65
2022-12-18T08:59:34.740Z,17.48
2022-12-18T09:02:03.161Z,12.85
2022-12-18T09:04:31.735Z,11.63
2022-12-18T09:07:40.072Z,11.65
2022-12-18T09:14:15.574Z,11.00
2022-12-18T09:16:43.988Z,7.68
2022-12-18T09:19:15.915Z,14.02
2022-12-18T09:21:48.032Z,14.57
2022-12-18T09:24:17.938Z,12.43
2022-12-18T09:26:47.519Z,12.55
2022-12-18T09:29:18.935Z,15.10
2022-12-18T09:31:47.993Z,14.35
2022-12-18T09:34:16.270Z,12.85
2022-12-18T09:36:44.694Z,14.48
2022-12-18T09:39:12.804Z,14.70
2022-12-18T09:41:50.975Z,13.77
2022-12-18T09:44:30.012Z,12.43
2022-12-18T09:47:14.840Z,13.60
2022-12-18T09:49:47.731Z,14.68
2022-12-18T09:52:23.891Z,12.10
2022-12-18T09:55:00.684Z,10.05
2022-12-18T09:57:29.123Z,12.00
2022-12-18T10:00:08.391Z,14.73
2022-12-18T10:02:36.769Z,14.00
2022-12-18T10:05:09.952Z,14.45
2022-12-18T10:07:57.280Z,13.65
2022-12-18T10:10:38.633Z,14.85
2022-12-18T10:13:24.688Z,14.18
2022-12-18T10:16:10.008Z,13.33
2022-12-18T10:19:03.557Z,14.55
2022-12-18T10:21:41.920Z,12.85
2022-12-18T10:24:27.764Z,15.63
2022-12-18T10:27:09.727Z,13.90
2022-12-18T10:29:38.265Z,14.05
2022-12-18T10:32:09.647Z,13.75
2022-12-18T10:34:38.587Z,13.32
2022-12-18T10:37:17.807Z,14.43
2022-12-18T10:39:47.080Z,15.38
2022-12-18T10:42:27.892Z,15.52
2022-12-18T10:45:05.659Z,13.82
2022-12-18T10:47:37.333Z,15.30
2022-12-18T10:50:07.108Z,13.43
2022-12-18T10:52:38.662Z,14.02
2022-12-18T10:55:20.504Z,15.25
2022-12-18T10:57:51.798Z,13.77
2022-12-18T11:00:37.087Z,14.82
2022-12-18T11:03:38.928Z,14.13
2022-12-18T11:06:27.103Z,13.18
2022-12-18T11:09:16.670Z,15.82
2022-12-18T11:11:53.288Z,15.73
2022-12-18T11:14:27.437Z,14.13
2022-12-18T11:19:56.171Z,13.25
2022-12-18T11:22:28.869Z,14.10
2022-12-18T11:25:32.205Z,12.90
2022-12-18T11:27:54.666Z,12.38
2022-12-18T11:30:29.942Z,14.65
2022-12-18T11:33:15.311Z,14.68
2022-12-18T11:35:54.986Z,12.85
2022-12-18T11:38:34.506Z,13.40
2022-12-18T11:41:17.551Z,13.43
2022-12-18T11:43:55.051Z,12.45
2022-12-18T11:46:36.858Z,13.80
2022-12-18T11:49:14.988Z,15.40
2022-12-18T11:51:58.058Z,14.30
2022-12-18T11:54:26.734Z,16.52
2022-12-18T11:57:09.326Z,15.98
2022-12-18T11:59:54.788Z,16.25
2022-12-18T12:02:44.632Z,15.80
2022-12-18T12:05:49.820Z,16.45
2022-12-18T12:08:34.805Z,15.30
2022-12-18T12:11:16.299Z,14.93
2022-12-18T12:14:05.876Z,14.77
2022-12-18T12:16:47.612Z,15.88
2022-12-18T12:19:38.227Z,14.25
2022-12-18T12:22:20.113Z,14.43
2022-12-18T12:25:10.143Z,14.50
2022-12-18T12:28:01.130Z,14.07
2022-12-18T12:30:44.621Z,14.95
2022-12-18T12:33:32.522Z,15.93
2022-12-18T12:36:13.231Z,14.20
2022-12-18T12:39:32.650Z,16.45
2022-12-18T12:42:34.814Z,15.90
2022-12-18T12:45:08.982Z,15.15
2022-12-18T12:47:46.321Z,15.50
2022-12-18T12:50:36.305Z,17.00
2022-12-18T12:53:18.512Z,16.25
2022-12-18T12:55:55.045Z,18.00
2022-12-18T12:58:37.769Z,11.95
2022-12-18T13:01:55.270Z,16.58
2022-12-18T13:04:37.326Z,17.90
2022-12-18T13:07:23.179Z,16.58
2022-12-18T13:10:28.921Z,15.93
2022-12-18T13:13:01.027Z,15.25
2022-12-18T13:15:41.350Z,15.10
2022-12-18T13:18:21.686Z,17.67
2022-12-18T13:21:06.273Z,15.73
2022-12-18T13:23:38.128Z,16.52
2022-12-18T13:26:35.388Z,17.98
2022-12-18T13:37:53.926Z,18.40
2022-12-18T13:40:59.759Z,17.33
2022-12-18T13:43:45.047Z,17.77
2022-12-18T13:46:26.452Z,17.75
2022-12-18T13:49:02.152Z,17.80
2022-12-18T13:51:33.385Z,17.92
2022-12-18T13:54:15.770Z,17.98
2022-12-18T13:56:48.099Z,16.08
2022-12-18T13:59:23.260Z,17.65
2022-12-18T14:01:57.723Z,18.73
2022-12-18T14:04:31.757Z,18.20
2022-12-18T14:07:07.870Z,18.77
2022-12-18T14:09:49.868Z,18.35
2022-12-18T14:12:41.571Z,18.88
2022-12-18T14:15:28.514Z,18.17
2022-12-18T14:18:02.278Z,16.67
2022-12-18T14:20:34.986Z,18.08
2022-12-18T14:25:42.807Z,17.45
2022-12-18T14:28:17.926Z,16.25
2022-12-18T14:55:19.179Z,19.48
2022-12-18T14:57:54.358Z,20.35
2022-12-18T15:06:38.786Z,16.23
2022-12-18T15:09:24.623Z,18.80
2022-12-18T15:11:59.665Z,19.38
2022-12-18T15:14:54.862Z,18.30
2022-12-18T15:17:26.882Z,20.83
2022-12-18T15:20:02.496Z,21.33
2022-12-18T15:22:36.199Z,20.70
2022-12-18T15:25:26.395Z,21.25
2022-12-18T15:27:54.730Z,19.17
2022-12-18T15:30:29.116Z,19.77
2022-12-18T15:33:29.267Z,22.92
2022-12-18T15:36:02.091Z,20.17
2022-12-18T15:38:31.660Z,21.80
2022-12-18T15:41:01.668Z,20.92
2022-12-18T15:43:40.063Z,19.95
2022-12-18T15:49:25.368Z,23.27
2022-12-18T15:52:12.672Z,22.85
2022-12-18T15:55:06.439Z,22.25
2022-12-18T15:57:37.660Z,22.73
2022-12-18T16:00:08.028Z,22.38
2022-12-18T16:03:10.228Z,20.75
2022-12-18T16:05:39.180Z,18.50
2022-12-18T16:08:07.976Z,23.83
2022-12-18T16:10:39.091Z,20.95
2022-12-18T16:13:22.872Z,21.10
2022-12-18T16:15:54.021Z,25.40
2022-12-18T16:18:26.022Z,21.13
2022-12-18T16:23:46.642Z,22.30
2022-12-18T16:26:16.733Z,21.05
2022-12-18T16:28:48.613Z,21.40
2022-12-18T16:31:17.192Z,22.17
2022-12-18T16:33:47.000Z,19.35
2022-12-18T16:36:15.568Z,21.75
2022-12-18T16:38:43.842Z,19.30
2022-12-18T16:41:34.203Z,19.75
2022-12-18T16:44:06.443Z,20.83
2022-12-18T16:46:35.102Z,20.98
2022-12-18T16:49:08.867Z,22.73
2022-12-18T16:51:37.356Z,24.50
2022-12-18T16:54:41.953Z,20.77
2022-12-18T16:57:25.368Z,22.35
2022-12-18T17:00:05.060Z,21.95
2022-12-18T17:02:42.071Z,20.33
2022-12-18T17:05:12.489Z,20.95
2022-12-18T17:07:40.725Z,19.73
2022-12-18T17:10:10.636Z,20.73
2022-12-18T17:12:39.426Z,23.00
2022-12-18T17:15:12.962Z,19.63
2022-12-18T17:20:54.085Z,21.95
2022-12-18T17:23:24.524Z,16.73
2022-12-18T17:26:11.834Z,24.13
2022-12-18T17:28:51.826Z,21.77
2022-12-18T17:32:03.124Z,23.98
2022-12-18T17:34:37.043Z,22.08
2022-12-18T17:37:10.970Z,22.60
2022-12-18T17:40:01.753Z,21.20
2022-12-18T17:43:09.489Z,21.02
2022-12-18T17:45:38.318Z,21.02
2022-12-18T17:48:18.862Z,20.45
2022-12-18T17:50:47.207Z,20.40
2022-12-18T17:53:17.051Z,22.20
2022-12-18T17:55:45.225Z,24.42
2022-12-18T17:58:13.710Z,21.35
2022-12-18T18:00:42.303Z,23.80
2022-12-18T18:03:10.816Z,21.33
2022-12-18T18:05:39.143Z,22.35
2022-12-18T18:08:07.670Z,22.42
2022-12-18T18:10:39.784Z,20.88
2022-12-18T18:13:43.397Z,22.10
2022-12-18T18:16:14.797Z,21.20
2022-12-18T18:18:43.254Z,21.08
2022-12-18T18:21:11.422Z,19.15
2022-12-18T18:23:39.846Z,20.35
2022-12-18T18:26:15.836Z,19.63
2022-12-18T18:28:44.097Z,19.98
2022-12-18T18:31:13.240Z,22.20
2022-12-18T18:33:41.921Z,23.67
2022-12-18T18:36:13.442Z,21.25
2022-12-18T18:38:46.724Z,24.15
2022-12-18T18:41:18.749Z,21.38
2022-12-18T18:43:47.349Z,27.45
2022-12-18T18:46:17.977Z,24.75
2022-12-18T18:48:46.123Z,39.25
2022-12-18T18:51:21.198Z,27.40
2022-12-18T18:53:52.272Z,27.90
2022-12-18T18:59:15.952Z,20.10
2022-12-18T19:01:44.744Z,22.23
2022-12-18T19:04:12.978Z,22.02
2022-12-18T19:06:42.671Z,22.08
2022-12-18T19:09:12.467Z,24.55
2022-12-18T19:11:59.635Z,22.55
2022-12-18T19:14:27.751Z,22.55
2022-12-18T19:16:55.977Z,23.40
2022-12-18T19:19:25.328Z,26.92
2022-12-18T19:21:53.817Z,23.95
2022-12-18T19:24:22.593Z,22.58
2022-12-18T19:26:52.292Z,22.48
2022-12-18T19:29:23.655Z,21.88
2022-12-18T19:31:51.876Z,22.25
2022-12-18T19:34:20.314Z,23.55
2022-12-18T19:36:48.789Z,25.20
2022-12-18T19:39:19.784Z,28.60
2022-12-18T19:41:48.980Z,23.20
2022-12-18T19:44:20.065Z,21.90
2022-12-18T19:46:51.920Z,23.75
2022-12-18T19:49:20.090Z,23.63
2022-12-18T19:51:50.278Z,21.48
2022-12-18T19:54:19.163Z,23.05
2022-12-18T19:56:47.682Z,24.02
2022-12-18T19:59:18.740Z,24.58
2022-12-18T20:01:46.967Z,23.50
2022-12-18T20:04:15.392Z,21.38
2022-12-18T20:06:52.436Z,21.70
2022-12-18T20:11:51.020Z,22.08
2022-12-18T20:14:28.231Z,22.77
2022-12-18T20:19:28.874Z,24.98
2022-12-18T20:21:57.416Z,23.00
2022-12-18T20:24:25.716Z,26.08
2022-12-18T20:26:53.852Z,23.90
2022-12-18T20:29:27.573Z,26.48
2022-12-18T20:31:56.296Z,27.77
2022-12-18T20:34:24.853Z,24.45
2022-12-18T20:36:53.305Z,25.98
2022-12-18T20:39:21.719Z,24.70
2022-12-18T20:41:51.492Z,26.42
2022-12-18T20:44:22.500Z,24.75
2022-12-18T20:46:57.383Z,24.65
2022-12-18T20:49:27.888Z,25.38
2022-12-18T20:51:58.276Z,28.45
2022-12-18T20:54:28.828Z,24.70
2022-12-18T20:56:58.068Z,28.65
2022-12-18T20:59:26.868Z,51.38
2022-12-18T21:01:57.196Z,27.38
2022-12-18T21:04:26.128Z,23.38
2022-12-18T21:07:00.685Z,23.85
2022-12-18T21:09:37.538Z,25.13
2022-12-18T21:12:29.382Z,23.30
2022-12-18T21:15:06.298Z,32.65
2022-12-18T21:17:44.678Z,39.45
2022-12-18T21:20:18.157Z,34.80
2022-12-18T21:22:49.477Z,33.10
2022-12-18T21:25:17.979Z,35.00
2022-12-18T21:27:46.234Z,34.60
2022-12-18T21:30:15.103Z,51.03
2022-12-18T21:32:44.749Z,43.20
2022-12-18T21:35:12.973Z,49.30
2022-12-18T21:37:46.295Z,54.53
2022-12-18T21:40:15.140Z,39.80
2022-12-18T21:43:00.721Z,40.03
2022-12-18T21:45:28.884Z,30.27
2022-12-18T21:47:58.560Z,27.77
2022-12-18T21:50:27.148Z,30.45
2022-12-18T21:52:55.534Z,31.08
2022-12-18T21:55:27.898Z,29.52
2022-12-18T21:57:56.006Z,42.92
2022-12-18T22:00:24.619Z,48.10
2022-12-18T22:03:17.521Z,35.15
2022-12-18T22:05:43.362Z,29.92
2022-12-18T22:08:11.764Z,38.63
2022-12-18T22:10:40.464Z,30.95
2022-12-18T22:13:10.489Z,28.25
2022-12-18T22:15:38.853Z,30.52
2022-12-18T22:18:12.891Z,42.45
2022-12-18T22:20:42.821Z,25.52
2022-12-18T22:23:16.123Z,26.15
2022-12-18T22:25:44.726Z,24.63
2022-12-18T22:28:30.502Z,33.22
2022-12-18T22:30:59.881Z,28.83
2022-12-18T22:33:29.473Z,25.42
2022-12-18T22:35:59.039Z,25.08
2022-12-18T22:38:27.342Z,29.05
2022-12-18T22:40:56.428Z,24.45
2022-12-18T22:43:24.583Z,23.95
2022-12-18T22:45:52.775Z,25.38
2022-12-18T22:48:20.861Z,27.63
2022-12-18T22:50:49.566Z,26.98
2022-12-18T22:53:20.563Z,26.10
2022-12-18T22:55:48.801Z,26.88
2022-12-18T22:58:16.880Z,26.50
2022-12-18T23:00:45.136Z,27.67
2022-12-18T23:03:13.438Z,26.27
2022-12-18T23:05:41.643Z,27.05
2022-12-18T23:08:09.851Z,30.50
2022-12-18T23:10:40.295Z,28.58
2022-12-18T23:13:11.479Z,27.33
2022-12-18T23:15:43.048Z,29.40
2022-12-18T23:18:11.635Z,29.20
2022-12-18T23:20:40.060Z,32.78
2022-12-18T23:23:08.544Z,25.13
2022-12-18T23:25:36.851Z,26.83
2022-12-18T23:28:07.052Z,26.52
2022-12-18T23:30:35.616Z,26.77
2022-12-18T23:33:03.833Z,29.83
2022-12-18T23:35:32.418Z,28.45
2022-12-18T23:38:00.931Z,30.40
2022-12-18T23:40:30.717Z,28.13
2022-12-18T23:43:01.172Z,28.27
2022-12-18T23:45:30.754Z,29.92
2022-12-18T23:47:58.952Z,33.03
2022-12-18T23:50:29.657Z,32.85
2022-12-18T23:53:04.624Z,26.95
2022-12-18T23:55:34.846Z,29.35
2022-12-18T23:58:03.069Z,29.23
